createdAt,value
2023-07-19T00:02:01.593Z,38.12
2023-07-19T00:07:07.576Z,38.26
2023-07-19T00:12:10.505Z,38.67
2023-07-19T00:17:14.271Z,38.66
2023-07-19T00:22:19.943Z,38.47
2023-07-19T00:27:35.826Z,38.39
2023-07-19T00:32:39.731Z,38.75
2023-07-19T00:37:49.635Z,38.82
2023-07-19T00:42:59.552Z,38.88
2023-07-19T00:48:06.308Z,39.11
2023-07-19T00:53:08.202Z,39.47
2023-07-19T00:58:10.044Z,39.75
2023-07-19T01:03:19.146Z,39.89
2023-07-19T01:08:21.181Z,39.81
2023-07-19T01:13:28.228Z,40.09
2023-07-19T01:18:35.020Z,40.07
2023-07-19T01:23:48.578Z,40.29
2023-07-19T01:28:50.097Z,40.17
2023-07-19T01:33:55.877Z,40.18
2023-07-19T01:39:02.151Z,40.29
2023-07-19T01:44:07.452Z,40.46
2023-07-19T01:49:09.026Z,40.63
2023-07-19T01:54:17.729Z,40.62
2023-07-19T01:59:25.488Z,40.83
2023-07-19T02:04:30.877Z,40.80
2023-07-19T02:09:35.900Z,40.92
2023-07-19T02:14:41.604Z,41.41
2023-07-19T02:19:45.543Z,41.45
2023-07-19T02:24:49.462Z,41.42
2023-07-19T02:30:01.337Z,41.54
2023-07-19T02:35:08.416Z,41.46
2023-07-19T02:40:13.459Z,41.51
2023-07-19T02:45:16.190Z,41.77
2023-07-19T02:50:20.724Z,41.77
2023-07-19T02:55:22.334Z,41.57
2023-07-19T03:00:24.027Z,42.05
2023-07-19T03:05:26.905Z,42.19
2023-07-19T03:10:31.220Z,42.21
2023-07-19T03:15:36.054Z,42.25
2023-07-19T03:20:38.879Z,42.33
2023-07-19T03:25:40.521Z,42.56
2023-07-19T03:30:42.112Z,43.00
2023-07-19T03:35:53.119Z,43.59
2023-07-19T03:40:54.734Z,43.72
2023-07-19T03:45:57.041Z,44.00
2023-07-19T03:51:05.076Z,43.86
2023-07-19T03:56:10.853Z,44.48
2023-07-19T04:01:17.676Z,44.79
2023-07-19T04:06:32.224Z,45.21
2023-07-19T04:11:34.688Z,45.58
2023-07-19T04:16:36.950Z,45.11
2023-07-19T04:21:44.769Z,45.16
2023-07-19T04:26:46.405Z,45.13
2023-07-19T04:31:50.217Z,45.23
2023-07-19T04:36:52.335Z,45.75
2023-07-19T04:41:54.015Z,45.50
2023-07-19T04:46:58.234Z,45.44
2023-07-19T04:52:00.301Z,45.41
2023-07-19T04:57:04.354Z,45.73
2023-07-19T05:02:08.921Z,45.60
2023-07-19T05:07:16.032Z,45.68
2023-07-19T05:12:20.062Z,45.84
2023-07-19T05:17:25.333Z,45.84
2023-07-19T05:22:31.263Z,45.41
2023-07-19T05:27:35.259Z,45.90
2023-07-19T05:32:36.878Z,46.15
2023-07-19T05:37:42.317Z,46.58
2023-07-19T05:42:52.970Z,47.08
2023-07-19T05:48:01.904Z,47.22
2023-07-19T05:53:09.055Z,47.03
2023-07-19T05:58:10.635Z,46.91
2023-07-19T06:03:19.998Z,46.60
2023-07-19T06:08:25.179Z,46.21
2023-07-19T06:13:27.365Z,46.14
2023-07-19T06:18:31.429Z,45.87
2023-07-19T06:23:33.081Z,46.19
2023-07-19T06:28:36.338Z,45.76
2023-07-19T06:33:42.429Z,45.37
2023-07-19T06:38:49.149Z,45.47
2023-07-19T06:43:50.696Z,45.13
2023-07-19T06:48:52.277Z,45.99
2023-07-19T06:54:08.771Z,46.29
2023-07-19T06:59:18.228Z,46.06
2023-07-19T07:04:22.568Z,46.20
2023-07-19T07:09:28.308Z,45.70
2023-07-19T07:14:29.814Z,45.45
2023-07-19T07:19:33.964Z,45.42
2023-07-19T07:24:37.431Z,45.51
2023-07-19T07:29:42.861Z,45.32
2023-07-19T07:34:52.988Z,45.00
2023-07-19T07:39:56.039Z,45.53
2023-07-19T07:44:57.559Z,45.25
2023-07-19T07:50:01.503Z,44.75
2023-07-19T07:55:08.361Z,44.75
2023-07-19T08:00:14.567Z,44.77
2023-07-19T08:05:21.612Z,44.38
2023-07-19T08:10:27.835Z,44.34
2023-07-19T08:15:29.494Z,44.21
2023-07-19T08:20:34.876Z,43.55
2023-07-19T08:25:39.506Z,43.71
2023-07-19T08:30:41.545Z,43.54
2023-07-19T08:35:45.821Z,43.85
2023-07-19T08:41:19.764Z,43.36
2023-07-19T08:46:24.378Z,43.35
2023-07-19T08:51:27.206Z,42.70
2023-07-19T08:56:33.336Z,42.37
2023-07-19T09:01:40.332Z,42.11
2023-07-19T09:06:46.603Z,41.97
2023-07-19T09:11:52.552Z,41.64
2023-07-19T09:16:54.247Z,41.01
2023-07-19T09:22:01.208Z,40.10
2023-07-19T09:27:02.795Z,39.60
2023-07-19T09:32:04.661Z,38.57
2023-07-19T09:37:08.865Z,37.90
2023-07-19T09:42:14.594Z,38.23
2023-07-19T09:47:28.140Z,37.95
2023-07-19T09:52:41.473Z,36.45
2023-07-19T09:57:49.422Z,36.80
2023-07-19T10:02:51.253Z,36.63
2023-07-19T10:07:52.872Z,37.02
2023-07-19T10:12:58.307Z,36.89
2023-07-19T10:18:04.041Z,36.41
2023-07-19T10:23:07.555Z,35.61
2023-07-19T10:28:13.816Z,35.45
2023-07-19T10:33:21.850Z,34.73
2023-07-19T10:38:35.413Z,34.35
2023-07-19T10:48:50.351Z,33.61
2023-07-19T10:53:58.682Z,32.84
2023-07-19T10:59:01.965Z,33.01
2023-07-19T11:04:08.479Z,32.51
2023-07-19T11:09:13.173Z,32.39
2023-07-19T11:14:29.839Z,32.48
2023-07-19T11:19:33.555Z,32.04
2023-07-19T11:24:39.736Z,31.84
2023-07-19T11:29:44.359Z,31.35
2023-07-19T11:34:51.806Z,31.24
2023-07-19T11:39:55.594Z,30.86
2023-07-19T11:45:02.321Z,29.91
2023-07-19T11:50:07.821Z,29.86
2023-07-19T11:55:12.321Z,30.23
2023-07-19T12:00:21.506Z,29.32
2023-07-19T12:05:25.259Z,29.63
2023-07-19T12:10:27.808Z,29.08
2023-07-19T12:15:31.966Z,29.17
2023-07-19T12:20:36.177Z,29.13
2023-07-19T12:25:37.784Z,28.24
2023-07-19T12:30:41.937Z,28.74
2023-07-19T12:35:50.280Z,27.62
2023-07-19T12:40:54.238Z,28.12
2023-07-19T12:46:00.834Z,28.50
2023-07-19T12:51:04.135Z,27.95
2023-07-19T12:56:06.111Z,28.04
2023-07-19T13:01:07.803Z,27.40
2023-07-19T13:06:14.088Z,27.48
2023-07-19T13:11:20.892Z,27.83
2023-07-19T13:16:22.815Z,27.04
2023-07-19T13:21:25.349Z,27.55
2023-07-19T13:26:29.428Z,27.11
2023-07-19T13:31:41.321Z,27.32
2023-07-19T13:41:52.501Z,26.56
2023-07-19T13:47:01.895Z,26.51
2023-07-19T13:52:06.322Z,26.86
2023-07-19T13:57:15.886Z,25.76
2023-07-19T14:07:31.316Z,25.84
2023-07-19T14:12:37.941Z,25.34
2023-07-19T14:17:40.672Z,25.33
2023-07-19T14:22:54.127Z,24.61
2023-07-19T14:27:56.664Z,24.88
2023-07-19T14:32:58.337Z,24.56
2023-07-19T14:38:03.934Z,24.72
2023-07-19T14:43:08.244Z,24.66
2023-07-19T14:48:15.337Z,24.53
2023-07-19T14:53:20.438Z,24.79
2023-07-19T14:58:26.413Z,23.98
2023-07-19T15:03:32.479Z,24.01
2023-07-19T15:08:36.518Z,24.26
2023-07-19T15:13:40.836Z,23.89
2023-07-19T15:18:48.569Z,23.65
2023-07-19T15:23:52.493Z,23.74
2023-07-19T15:29:05.090Z,23.93
2023-07-19T15:34:09.162Z,23.75
2023-07-19T15:39:18.513Z,24.12
2023-07-19T15:44:36.110Z,23.84
2023-07-19T15:49:38.628Z,24.06
2023-07-19T15:54:43.329Z,27.05
2023-07-19T15:59:44.991Z,27.73
2023-07-19T16:04:46.630Z,28.28
2023-07-19T16:09:48.158Z,28.94
2023-07-19T16:14:52.245Z,28.73
2023-07-19T16:20:14.481Z,28.67
2023-07-19T16:25:18.350Z,29.02
2023-07-19T16:30:19.931Z,28.95
2023-07-19T16:35:23.972Z,28.87
2023-07-19T16:40:25.571Z,28.65
2023-07-19T16:45:31.955Z,28.40
2023-07-19T16:50:34.616Z,27.75
2023-07-19T16:55:38.641Z,27.91
2023-07-19T17:00:44.011Z,27.40
2023-07-19T17:05:50.456Z,26.84
2023-07-19T17:10:56.038Z,26.80
2023-07-19T17:15:57.591Z,26.79
2023-07-19T17:21:01.512Z,27.04
2023-07-19T17:26:05.890Z,27.17
2023-07-19T17:31:09.793Z,26.82
2023-07-19T17:36:13.673Z,26.91
2023-07-19T17:41:19.038Z,26.95
2023-07-19T17:46:21.028Z,26.62
2023-07-19T17:51:22.861Z,26.54
2023-07-19T17:56:24.747Z,26.64
2023-07-19T18:01:26.484Z,26.58
2023-07-19T18:06:30.831Z,26.37
2023-07-19T18:11:32.676Z,26.01
2023-07-19T18:16:38.235Z,25.75
2023-07-19T18:21:47.683Z,25.88
2023-07-19T18:26:55.768Z,25.78
2023-07-19T18:32:06.876Z,26.10
2023-07-19T18:37:08.960Z,26.15
2023-07-19T18:42:10.609Z,26.18
2023-07-19T18:47:12.903Z,26.30
2023-07-19T18:52:17.559Z,26.03
2023-07-19T18:57:23.528Z,26.19
2023-07-19T19:02:28.175Z,30.02
2023-07-19T19:07:32.534Z,32.34
2023-07-19T19:12:39.049Z,33.38
2023-07-19T19:17:52.261Z,34.54
2023-07-19T19:22:59.372Z,35.01
2023-07-19T19:28:03.856Z,35.39
2023-07-19T19:33:06.934Z,35.91
2023-07-19T19:38:11.136Z,36.45
2023-07-19T19:43:12.991Z,36.43
2023-07-19T19:48:15.333Z,37.56
2023-07-19T19:53:21.340Z,38.04
2023-07-19T19:58:25.081Z,38.30
2023-07-19T20:08:34.162Z,39.80
2023-07-19T20:13:36.106Z,39.71
2023-07-19T20:23:45.763Z,40.24
2023-07-19T20:28:50.060Z,40.59
2023-07-19T20:39:00.344Z,40.57
2023-07-19T20:44:02.029Z,39.98
2023-07-19T20:49:13.181Z,40.40
2023-07-19T20:54:26.703Z,39.56
2023-07-19T20:59:36.141Z,40.06
2023-07-19T21:04:38.613Z,39.45
2023-07-19T21:09:43.005Z,40.40
2023-07-19T21:14:45.300Z,40.81
2023-07-19T21:19:48.778Z,40.79
2023-07-19T21:25:13.406Z,41.13
2023-07-19T21:30:14.807Z,41.26
2023-07-19T21:35:19.752Z,41.16
2023-07-19T21:40:21.768Z,41.07
2023-07-19T21:45:29.443Z,41.09
2023-07-19T21:50:31.208Z,41.55
2023-07-19T21:55:32.789Z,41.88
2023-07-19T22:00:45.140Z,42.51
2023-07-19T22:05:46.805Z,42.71
2023-07-19T22:10:48.417Z,43.15
2023-07-19T22:15:56.759Z,43.31
2023-07-19T22:21:15.614Z,43.85
2023-07-19T22:26:22.261Z,43.82
2023-07-19T22:31:25.139Z,44.04
2023-07-19T22:36:27.433Z,44.32
2023-07-19T22:41:31.349Z,44.41
2023-07-19T22:46:35.112Z,44.44
2023-07-19T22:51:37.580Z,44.43
2023-07-19T22:56:46.807Z,44.27
2023-07-19T23:01:54.234Z,44.31
2023-07-19T23:06:58.323Z,44.36
2023-07-19T23:12:02.474Z,44.63
2023-07-19T23:17:04.366Z,44.62
2023-07-19T23:22:12.181Z,44.63
2023-07-19T23:27:14.120Z,44.53
2023-07-19T23:32:22.124Z,45.02
2023-07-19T23:37:24.840Z,45.13
2023-07-19T23:42:28.692Z,45.19
2023-07-19T23:47:38.549Z,45.43
2023-07-19T23:52:41.337Z,45.53
2023-07-19T23:57:48.575Z,45.57
